createdAt,value
2022-08-30T00:01:02.876Z,93.88
2022-08-30T00:02:06.975Z,93.25
2022-08-30T00:03:11.085Z,93.85
2022-08-30T00:04:14.232Z,94.10
2022-08-30T00:05:17.796Z,93.35
2022-08-30T00:06:21.743Z,93.54
2022-08-30T00:07:25.238Z,93.62
2022-08-30T00:08:28.228Z,93.50
2022-08-30T00:09:32.337Z,93.75
2022-08-30T00:10:35.767Z,93.69
2022-08-30T00:11:38.627Z,93.54
2022-08-30T00:12:43.476Z,93.75
2022-08-30T00:13:46.606Z,93.55
2022-08-30T00:14:49.743Z,93.63
2022-08-30T00:15:53.186Z,93.55
2022-08-30T00:16:56.314Z,93.77
2022-08-30T00:17:59.352Z,93.56
2022-08-30T00:19:02.384Z,93.47
2022-08-30T00:20:07.001Z,93.96
2022-08-30T00:21:10.913Z,93.84
2022-08-30T00:22:14.087Z,93.70
2022-08-30T00:23:18.182Z,93.60
2022-08-30T00:24:21.237Z,93.92
2022-08-30T00:25:24.423Z,94.22
2022-08-30T00:26:27.585Z,95.06
2022-08-30T00:27:30.786Z,94.23
2022-08-30T00:28:34.099Z,94.65
2022-08-30T00:29:37.088Z,94.95
2022-08-30T00:30:40.970Z,94.35
2022-08-30T00:31:44.088Z,94.74
2022-08-30T00:32:47.473Z,94.60
2022-08-30T00:33:50.504Z,95.28
2022-08-30T00:34:54.330Z,95.19
2022-08-30T00:35:57.250Z,95.28
2022-08-30T00:37:00.734Z,95.08
2022-08-30T00:38:03.759Z,95.82
2022-08-30T00:39:06.646Z,95.29
2022-08-30T00:40:10.255Z,95.34
2022-08-30T00:41:13.179Z,95.55
2022-08-30T00:42:17.589Z,95.85
2022-08-30T00:43:23.334Z,95.32
2022-08-30T00:44:27.099Z,96.65
2022-08-30T00:45:32.128Z,95.89
2022-08-30T00:46:35.482Z,95.99
2022-08-30T00:47:38.569Z,95.41
2022-08-30T00:48:43.193Z,96.21
2022-08-30T00:49:48.105Z,95.55
2022-08-30T00:51:00.273Z,96.02
2022-08-30T00:52:04.502Z,95.91
2022-08-30T00:53:10.843Z,95.80
2022-08-30T00:54:14.350Z,95.71
2022-08-30T00:55:17.883Z,96.01
2022-08-30T00:56:21.118Z,95.98
2022-08-30T00:57:24.074Z,95.63
2022-08-30T00:58:29.482Z,96.02
2022-08-30T00:59:32.748Z,95.94
2022-08-30T01:00:35.942Z,96.39
2022-08-30T01:01:39.388Z,96.02
2022-08-30T01:02:42.939Z,96.48
2022-08-30T01:03:47.023Z,96.99
2022-08-30T01:04:51.522Z,96.31
2022-08-30T01:05:54.662Z,96.51
2022-08-30T01:06:57.619Z,96.65
2022-08-30T01:08:01.069Z,96.15
2022-08-30T01:09:05.346Z,96.18
2022-08-30T01:10:10.134Z,96.22
2022-08-30T01:11:15.162Z,96.67
2022-08-30T01:12:18.576Z,96.26
2022-08-30T01:13:22.732Z,96.41
2022-08-30T01:14:26.166Z,96.69
2022-08-30T01:15:29.359Z,97.25
2022-08-30T01:16:33.921Z,97.19
2022-08-30T01:17:38.823Z,96.76
2022-08-30T01:18:44.688Z,96.95
2022-08-30T01:19:51.454Z,96.92
2022-08-30T01:21:13.311Z,97.33
2022-08-30T01:22:18.940Z,97.08
2022-08-30T01:23:23.188Z,96.70
2022-08-30T01:24:26.588Z,97.62
2022-08-30T01:25:30.721Z,96.99
2022-08-30T01:26:34.891Z,97.93
2022-08-30T01:27:53.517Z,97.62
2022-08-30T01:28:58.787Z,97.22
2022-08-30T01:30:01.949Z,97.47
2022-08-30T01:32:46.709Z,97.19
2022-08-30T01:33:51.083Z,97.42
2022-08-30T01:34:54.020Z,97.10
2022-08-30T01:35:56.839Z,97.59
2022-08-30T01:36:59.807Z,97.23
2022-08-30T01:38:02.897Z,97.06
2022-08-30T01:39:06.234Z,96.94
2022-08-30T01:40:09.538Z,97.18
2022-08-30T01:41:23.144Z,97.29
2022-08-30T01:42:26.057Z,96.68
2022-08-30T01:43:31.110Z,96.80
2022-08-30T01:44:34.251Z,96.60
2022-08-30T01:45:37.238Z,96.76
2022-08-30T01:46:42.095Z,96.97
2022-08-30T01:47:45.009Z,96.59
2022-08-30T01:48:50.327Z,96.74
2022-08-30T01:49:58.315Z,97.06
2022-08-30T01:51:01.252Z,96.70
2022-08-30T01:52:04.783Z,96.95
2022-08-30T01:53:07.950Z,96.72
2022-08-30T01:54:16.141Z,96.23
2022-08-30T01:55:19.753Z,96.17
2022-08-30T01:56:23.558Z,96.28
2022-08-30T01:57:29.461Z,96.43
2022-08-30T01:58:32.490Z,96.39
2022-08-30T01:59:35.857Z,95.96
2022-08-30T02:00:39.287Z,96.39
2022-08-30T02:01:43.114Z,96.10
2022-08-30T02:02:46.172Z,96.09
2022-08-30T02:03:49.538Z,96.35
2022-08-30T02:04:53.425Z,96.28
2022-08-30T02:05:56.796Z,95.91
2022-08-30T02:06:59.731Z,96.02
2022-08-30T02:08:03.576Z,96.10
2022-08-30T02:09:06.499Z,95.81
2022-08-30T02:10:09.889Z,96.05
2022-08-30T02:11:13.621Z,96.37
2022-08-30T02:12:16.590Z,95.92
2022-08-30T02:13:19.556Z,95.73
2022-08-30T02:14:22.530Z,95.85
2022-08-30T02:15:26.052Z,95.65
2022-08-30T02:16:29.429Z,95.71
2022-08-30T02:17:33.285Z,95.58
2022-08-30T02:18:37.094Z,95.67
2022-08-30T02:19:40.613Z,95.74
2022-08-30T02:20:43.670Z,95.28
2022-08-30T02:21:46.619Z,95.56
2022-08-30T02:22:49.652Z,95.29
2022-08-30T02:23:52.734Z,95.19
2022-08-30T02:24:55.754Z,95.44
2022-08-30T02:25:58.853Z,95.50
2022-08-30T02:27:01.938Z,95.22
2022-08-30T02:28:05.605Z,94.92
2022-08-30T02:29:09.418Z,94.86
2022-08-30T02:30:12.788Z,94.79
2022-08-30T02:31:16.024Z,94.75
2022-08-30T02:32:22.566Z,95.01
2022-08-30T02:33:25.457Z,94.79
2022-08-30T02:34:28.321Z,94.81
2022-08-30T02:35:31.414Z,94.69
2022-08-30T02:36:34.326Z,94.59
2022-08-30T02:37:37.616Z,94.59
2022-08-30T02:38:40.638Z,94.56
2022-08-30T02:39:43.590Z,94.61
2022-08-30T02:40:46.648Z,94.54
2022-08-30T02:41:49.831Z,94.13
2022-08-30T02:42:53.257Z,94.57
2022-08-30T02:43:59.403Z,94.30
2022-08-30T02:45:02.588Z,94.28
2022-08-30T02:46:06.121Z,94.37
2022-08-30T02:47:09.052Z,94.16
2022-08-30T02:48:12.081Z,94.47
2022-08-30T02:49:33.518Z,94.13
2022-08-30T02:50:41.623Z,94.12
2022-08-30T02:51:44.610Z,94.09
2022-08-30T02:52:48.260Z,94.47
2022-08-30T02:53:51.641Z,94.09
2022-08-30T02:54:55.374Z,94.19
2022-08-30T02:55:58.872Z,94.18
2022-08-30T02:57:05.120Z,94.19
2022-08-30T02:58:09.032Z,94.17
2022-08-30T02:59:12.049Z,93.85
2022-08-30T03:00:16.869Z,93.97
2022-08-30T03:01:20.017Z,93.95
2022-08-30T03:02:23.000Z,93.95
2022-08-30T03:03:25.988Z,93.93
2022-08-30T03:04:29.462Z,93.96
2022-08-30T03:05:33.447Z,93.58
2022-08-30T03:06:36.605Z,93.91
2022-08-30T03:07:40.266Z,93.75
2022-08-30T03:08:43.286Z,93.70
2022-08-30T03:09:46.444Z,94.05
2022-08-30T03:10:49.576Z,93.69
2022-08-30T03:11:52.563Z,93.61
2022-08-30T03:12:55.867Z,93.55
2022-08-30T03:13:59.482Z,93.51
2022-08-30T03:15:02.708Z,93.77
2022-08-30T03:16:05.672Z,93.55
2022-08-30T03:17:12.774Z,93.33
2022-08-30T03:18:19.778Z,93.32
2022-08-30T03:19:22.874Z,93.58
2022-08-30T03:20:26.183Z,93.26
2022-08-30T03:21:29.082Z,93.47
2022-08-30T03:22:32.022Z,93.13
2022-08-30T03:23:35.473Z,93.24
2022-08-30T03:24:38.852Z,93.08
2022-08-30T03:25:41.875Z,93.20
2022-08-30T03:26:46.703Z,93.24
2022-08-30T03:27:50.743Z,93.40
2022-08-30T03:28:53.831Z,92.99
2022-08-30T03:29:57.165Z,93.19
2022-08-30T03:31:00.351Z,93.09
2022-08-30T03:32:03.850Z,92.99
2022-08-30T03:33:07.120Z,93.05
2022-08-30T03:34:10.994Z,93.40
2022-08-30T03:35:14.683Z,92.88
2022-08-30T03:36:17.861Z,92.58
2022-08-30T03:37:24.363Z,92.83
2022-08-30T03:38:28.552Z,92.59
2022-08-30T03:39:31.994Z,92.81
2022-08-30T03:40:36.355Z,92.93
2022-08-30T03:41:39.837Z,92.55
2022-08-30T03:42:44.983Z,92.45
2022-08-30T03:43:47.910Z,92.50
2022-08-30T03:44:51.030Z,92.57
2022-08-30T03:45:54.188Z,92.91
2022-08-30T03:46:57.223Z,92.34
2022-08-30T03:48:02.329Z,92.76
2022-08-30T03:49:07.455Z,92.61
2022-08-30T03:50:11.197Z,92.36
2022-08-30T03:51:14.423Z,92.71
2022-08-30T03:52:17.418Z,92.86
2022-08-30T03:53:21.613Z,92.72
2022-08-30T03:54:24.945Z,92.37
2022-08-30T03:55:29.021Z,92.45
2022-08-30T03:56:32.151Z,92.72
2022-08-30T03:57:36.591Z,92.34
2022-08-30T03:58:40.648Z,92.53
2022-08-30T03:59:43.665Z,92.43
2022-08-30T04:00:46.711Z,92.46
2022-08-30T04:01:49.854Z,92.17
2022-08-30T04:02:53.020Z,92.34
2022-08-30T04:03:56.739Z,92.70
2022-08-30T04:04:59.883Z,92.41
2022-08-30T04:06:03.457Z,92.17
2022-08-30T04:07:06.555Z,92.50
2022-08-30T04:08:09.622Z,92.21
2022-08-30T04:09:12.605Z,92.08
2022-08-30T04:10:15.756Z,92.27
2022-08-30T04:11:18.864Z,92.16
2022-08-30T04:12:22.668Z,91.86
2022-08-30T04:13:26.136Z,91.97
2022-08-30T04:14:29.187Z,92.07
2022-08-30T04:15:32.088Z,92.08
2022-08-30T04:16:35.582Z,92.20
2022-08-30T04:17:38.537Z,92.10
2022-08-30T04:18:41.732Z,91.73
2022-08-30T04:19:44.809Z,91.60
2022-08-30T04:20:47.909Z,91.55
2022-08-30T04:21:50.898Z,91.51
2022-08-30T04:22:54.028Z,91.32
2022-08-30T04:23:57.148Z,91.65
2022-08-30T04:25:00.089Z,91.40
2022-08-30T04:26:03.192Z,91.50
2022-08-30T04:27:06.067Z,91.39
2022-08-30T04:28:09.146Z,91.32
2022-08-30T04:29:12.413Z,91.32
2022-08-30T04:30:16.106Z,91.46
2022-08-30T04:31:19.442Z,91.46
2022-08-30T04:32:22.579Z,91.33
2022-08-30T04:33:25.731Z,91.56
2022-08-30T04:34:28.748Z,91.25
2022-08-30T04:35:31.851Z,91.30
2022-08-30T04:36:34.763Z,91.05
2022-08-30T04:37:38.890Z,91.08
2022-08-30T04:38:42.081Z,91.06
2022-08-30T04:39:46.398Z,91.08
2022-08-30T04:40:49.453Z,91.08
2022-08-30T04:41:52.542Z,91.07
2022-08-30T04:42:56.325Z,90.95
2022-08-30T04:44:03.294Z,90.87
2022-08-30T04:45:08.929Z,90.27
2022-08-30T04:46:13.994Z,89.97
2022-08-30T04:47:18.356Z,90.07
2022-08-30T04:48:22.298Z,89.99
2022-08-30T04:49:25.341Z,89.76
2022-08-30T04:50:28.411Z,89.40
2022-08-30T04:51:31.331Z,89.41
2022-08-30T04:52:34.470Z,88.85
2022-08-30T04:53:37.493Z,88.83
2022-08-30T04:54:40.844Z,88.65
2022-08-30T04:55:44.321Z,88.71
2022-08-30T04:56:47.252Z,88.54
2022-08-30T04:57:51.141Z,88.03
2022-08-30T04:58:55.171Z,87.74
2022-08-30T04:59:58.250Z,87.31
2022-08-30T05:01:01.433Z,87.16
2022-08-30T05:02:05.828Z,86.78
2022-08-30T05:03:08.911Z,86.93
2022-08-30T05:04:11.955Z,86.16
2022-08-30T05:05:33.532Z,86.27
2022-08-30T05:06:36.896Z,85.61
2022-08-30T05:07:39.938Z,86.30
2022-08-30T05:08:46.037Z,86.34
2022-08-30T05:09:50.048Z,86.65
2022-08-30T05:10:53.149Z,86.42
2022-08-30T05:11:56.245Z,86.50
2022-08-30T05:12:59.452Z,86.57
2022-08-30T05:14:02.495Z,86.60
2022-08-30T05:15:05.652Z,86.47
2022-08-30T05:16:08.888Z,86.30
2022-08-30T05:17:12.208Z,86.42
2022-08-30T05:18:15.909Z,86.54
2022-08-30T05:19:18.917Z,86.08
2022-08-30T05:20:21.906Z,85.94
2022-08-30T05:21:26.683Z,85.92
2022-08-30T05:22:29.830Z,86.12
2022-08-30T05:23:32.763Z,86.10
2022-08-30T05:24:36.448Z,86.20
2022-08-30T05:25:41.380Z,85.99
2022-08-30T05:26:44.582Z,85.58
2022-08-30T05:27:47.885Z,85.56
2022-08-30T05:28:50.932Z,85.42
2022-08-30T05:29:55.450Z,85.10
2022-08-30T05:30:58.437Z,85.18
2022-08-30T05:32:01.678Z,85.29
2022-08-30T05:33:04.807Z,85.16
2022-08-30T05:34:07.909Z,85.27
2022-08-30T05:35:11.765Z,85.27
2022-08-30T05:36:15.728Z,85.17
2022-08-30T05:37:18.919Z,85.17
2022-08-30T05:38:21.978Z,85.22
2022-08-30T05:39:25.302Z,84.89
2022-08-30T05:40:29.182Z,85.06
2022-08-30T05:41:32.659Z,84.98
2022-08-30T05:42:36.312Z,84.94
2022-08-30T05:43:39.983Z,84.70
2022-08-30T05:44:44.377Z,84.81
2022-08-30T05:45:47.458Z,84.85
2022-08-30T05:46:50.620Z,84.48
2022-08-30T05:47:53.943Z,84.70
2022-08-30T05:48:57.717Z,84.35
2022-08-30T05:50:00.622Z,84.44
2022-08-30T05:51:03.763Z,84.24
2022-08-30T05:52:06.979Z,84.25
2022-08-30T05:53:10.019Z,84.21
2022-08-30T05:54:13.794Z,83.91
2022-08-30T05:55:19.004Z,84.16
2022-08-30T05:56:24.744Z,84.04
2022-08-30T05:57:28.730Z,83.98
2022-08-30T05:58:32.207Z,83.83
2022-08-30T05:59:35.269Z,83.63
2022-08-30T06:00:38.280Z,83.44
2022-08-30T06:01:42.717Z,83.27
2022-08-30T06:02:46.183Z,83.13
2022-08-30T06:03:49.484Z,83.13
2022-08-30T06:04:52.593Z,83.03
2022-08-30T06:05:55.637Z,83.18
2022-08-30T06:06:59.024Z,83.13
2022-08-30T06:08:01.894Z,83.32
2022-08-30T06:09:05.849Z,83.25
2022-08-30T06:10:12.435Z,83.26
2022-08-30T06:11:17.192Z,83.05
2022-08-30T06:12:20.290Z,82.90
2022-08-30T06:13:23.553Z,82.75
2022-08-30T06:14:26.671Z,82.62
2022-08-30T06:15:29.836Z,82.80
2022-08-30T06:16:33.429Z,82.59
2022-08-30T06:17:36.590Z,82.74
2022-08-30T06:18:39.808Z,82.73
2022-08-30T06:19:42.864Z,82.79
2022-08-30T06:20:51.254Z,82.78
2022-08-30T06:21:54.174Z,82.86
2022-08-30T06:22:57.195Z,82.91
2022-08-30T06:24:00.846Z,83.01
2022-08-30T06:25:03.994Z,82.96
2022-08-30T06:26:07.593Z,82.80
2022-08-30T06:27:11.101Z,83.07
2022-08-30T06:28:14.336Z,82.29
2022-08-30T06:29:19.737Z,82.44
2022-08-30T06:30:22.720Z,82.01
2022-08-30T06:31:26.085Z,81.76
2022-08-30T06:32:29.080Z,81.91
2022-08-30T06:33:32.049Z,82.01
2022-08-30T06:34:35.133Z,82.03
2022-08-30T06:35:52.162Z,82.06
2022-08-30T06:37:01.244Z,81.63
2022-08-30T06:38:04.353Z,81.86
2022-08-30T06:39:07.840Z,82.15
2022-08-30T06:40:11.217Z,81.38
2022-08-30T06:41:20.399Z,81.18
2022-08-30T06:42:36.252Z,81.18
2022-08-30T06:43:48.608Z,80.53
2022-08-30T06:44:55.252Z,80.63
2022-08-30T06:46:02.324Z,80.43
2022-08-30T06:47:05.970Z,80.49
2022-08-30T06:48:08.904Z,80.19
2022-08-30T06:49:11.984Z,80.30
2022-08-30T06:50:15.982Z,80.20
2022-08-30T06:51:22.383Z,80.21
2022-08-30T06:52:25.745Z,80.33
2022-08-30T06:53:31.670Z,79.94
2022-08-30T06:54:34.572Z,79.60
2022-08-30T06:55:37.555Z,79.77
2022-08-30T06:56:55.303Z,79.52
2022-08-30T06:58:01.661Z,79.27
2022-08-30T06:59:05.094Z,79.34
2022-08-30T07:00:09.474Z,79.43
2022-08-30T07:01:18.088Z,78.90
2022-08-30T07:02:21.146Z,78.27
2022-08-30T07:03:24.118Z,78.37
2022-08-30T07:04:27.038Z,78.07
2022-08-30T07:05:30.012Z,77.81
2022-08-30T07:06:33.450Z,78.25
2022-08-30T07:07:36.577Z,77.62
2022-08-30T07:08:39.622Z,76.28
2022-08-30T07:09:43.693Z,76.93
2022-08-30T07:10:46.847Z,76.56
2022-08-30T07:11:50.729Z,77.19
2022-08-30T07:12:53.799Z,77.24
2022-08-30T07:13:56.916Z,77.07
2022-08-30T07:14:59.810Z,77.27
2022-08-30T07:16:09.323Z,77.58
2022-08-30T07:17:34.782Z,77.50
2022-08-30T07:18:56.720Z,77.53
2022-08-30T07:19:59.711Z,77.60
2022-08-30T07:21:06.885Z,77.74
2022-08-30T07:22:09.950Z,77.82
2022-08-30T07:23:13.233Z,77.90
2022-08-30T07:24:16.508Z,77.67
2022-08-30T07:25:19.913Z,77.75
2022-08-30T07:26:25.542Z,77.83
2022-08-30T07:27:28.740Z,77.92
2022-08-30T07:28:32.355Z,78.11
2022-08-30T07:29:35.352Z,78.08
2022-08-30T07:30:38.869Z,78.30
2022-08-30T07:31:41.948Z,78.47
2022-08-30T07:32:44.980Z,78.60
2022-08-30T07:33:48.399Z,78.81
2022-08-30T07:34:51.710Z,78.92
2022-08-30T07:35:54.867Z,79.12
2022-08-30T07:36:57.764Z,79.28
2022-08-30T07:38:00.876Z,79.52
2022-08-30T07:39:04.964Z,79.48
2022-08-30T07:40:09.111Z,79.66
2022-08-30T07:41:16.848Z,79.85
2022-08-30T07:42:19.893Z,79.65
2022-08-30T07:43:22.970Z,79.53
2022-08-30T07:44:26.289Z,79.59
2022-08-30T07:45:29.358Z,79.73
2022-08-30T07:46:32.444Z,79.74
2022-08-30T07:47:35.545Z,79.99
2022-08-30T07:48:38.699Z,80.04
2022-08-30T07:49:41.781Z,80.02
2022-08-30T07:50:45.455Z,80.40
2022-08-30T07:51:48.897Z,80.33
2022-08-30T07:52:51.874Z,80.27
2022-08-30T07:53:55.524Z,80.38
2022-08-30T07:54:59.459Z,80.38
2022-08-30T07:56:04.770Z,80.41
2022-08-30T07:57:07.984Z,80.67
2022-08-30T07:58:10.917Z,80.59
2022-08-30T07:59:14.003Z,80.53
2022-08-30T08:00:17.370Z,80.64
2022-08-30T08:01:21.210Z,80.83
2022-08-30T08:02:24.309Z,80.76
2022-08-30T08:03:27.576Z,81.12
2022-08-30T08:04:30.756Z,81.21
2022-08-30T08:05:53.230Z,80.97
2022-08-30T08:06:56.342Z,81.27
2022-08-30T08:07:59.584Z,81.61
2022-08-30T08:09:02.617Z,81.57
2022-08-30T08:10:06.258Z,82.09
2022-08-30T08:11:16.394Z,82.16
2022-08-30T08:12:19.741Z,82.04
2022-08-30T08:13:23.597Z,82.06
2022-08-30T08:14:31.394Z,82.47
2022-08-30T08:15:34.572Z,82.38
2022-08-30T08:16:38.104Z,82.46
2022-08-30T08:17:41.192Z,82.64
2022-08-30T08:18:44.172Z,82.72
2022-08-30T08:19:47.139Z,82.51
2022-08-30T08:20:50.194Z,82.88
2022-08-30T08:22:21.021Z,82.93
2022-08-30T08:23:23.207Z,83.23
2022-08-30T08:24:26.955Z,83.29
2022-08-30T08:25:29.883Z,83.41
2022-08-30T08:26:37.433Z,83.64
2022-08-30T08:27:40.873Z,84.05
2022-08-30T08:28:45.009Z,83.72
2022-08-30T08:29:48.031Z,84.10
2022-08-30T08:30:54.122Z,84.30
2022-08-30T08:31:58.482Z,84.33
2022-08-30T08:33:02.014Z,84.30
2022-08-30T08:34:08.203Z,84.75
2022-08-30T08:35:11.630Z,85.72
2022-08-30T08:36:15.132Z,84.95
2022-08-30T08:37:19.135Z,85.29
2022-08-30T08:38:24.139Z,86.00
2022-08-30T08:39:27.135Z,86.04
2022-08-30T08:40:35.147Z,86.12
2022-08-30T08:41:44.248Z,86.43
2022-08-30T08:43:00.954Z,86.44
2022-08-30T08:44:08.860Z,86.97
2022-08-30T08:45:14.431Z,86.53
2022-08-30T08:46:36.187Z,86.80
2022-08-30T08:47:39.163Z,87.04
2022-08-30T08:48:59.472Z,87.16
2022-08-30T08:50:05.238Z,87.26
2022-08-30T08:51:29.014Z,87.55
2022-08-30T08:53:01.594Z,88.11
2022-08-30T08:54:17.509Z,87.88
2022-08-30T08:55:22.295Z,88.23
2022-08-30T08:56:25.394Z,88.69
2022-08-30T08:57:31.890Z,88.68
2022-08-30T08:58:41.579Z,88.97
2022-08-30T08:59:45.168Z,89.29
2022-08-30T09:00:48.388Z,89.34
2022-08-30T09:01:51.487Z,89.41
2022-08-30T09:02:58.563Z,90.06
2022-08-30T09:04:12.725Z,90.21
2022-08-30T09:05:18.890Z,90.26
2022-08-30T09:06:28.939Z,90.52
2022-08-30T09:07:40.311Z,90.67
2022-08-30T09:08:43.201Z,91.07
2022-08-30T09:09:46.165Z,91.52
2022-08-30T09:10:54.317Z,91.64
2022-08-30T09:11:57.923Z,91.97
2022-08-30T09:13:02.286Z,92.04
2022-08-30T09:14:17.575Z,92.55
2022-08-30T09:15:33.019Z,92.75
2022-08-30T09:17:06.594Z,92.77
2022-08-30T09:18:16.886Z,93.87
2022-08-30T09:19:34.530Z,93.27
2022-08-30T09:20:41.271Z,93.61
2022-08-30T09:21:44.187Z,93.81
2022-08-30T09:22:47.343Z,94.78
2022-08-30T09:23:56.287Z,94.22
2022-08-30T09:25:01.991Z,94.56
2022-08-30T09:26:07.426Z,94.43
2022-08-30T09:27:16.104Z,94.87
2022-08-30T09:28:23.308Z,95.39
2022-08-30T09:29:26.555Z,95.60
2022-08-30T09:30:30.358Z,95.16
2022-08-30T09:31:45.683Z,95.39
2022-08-30T09:33:14.609Z,96.82
2022-08-30T09:34:20.328Z,95.33
2022-08-30T09:35:34.715Z,96.31
2022-08-30T09:36:40.509Z,96.00
2022-08-30T09:37:46.534Z,96.04
2022-08-30T09:38:57.543Z,96.88
2022-08-30T09:40:00.985Z,96.84
2022-08-30T09:41:41.989Z,96.74
2022-08-30T09:42:58.654Z,97.06
2022-08-30T09:44:06.746Z,97.19
2022-08-30T09:45:19.297Z,96.99
2022-08-30T09:46:24.492Z,97.36
2022-08-30T09:47:31.793Z,97.60
2022-08-30T09:48:35.328Z,97.97
2022-08-30T09:49:43.626Z,97.83
2022-08-30T09:50:49.394Z,97.51
2022-08-30T09:52:04.099Z,97.45
2022-08-30T09:53:11.854Z,97.76
2022-08-30T09:54:17.683Z,97.81
2022-08-30T09:55:28.017Z,97.91
2022-08-30T09:56:44.762Z,97.95
2022-08-30T09:57:56.682Z,97.58
2022-08-30T09:59:00.093Z,97.61
2022-08-30T10:00:04.377Z,97.37
2022-08-30T10:01:11.935Z,97.45
2022-08-30T10:02:15.130Z,97.43
2022-08-30T10:03:40.632Z,97.69
2022-08-30T10:04:48.462Z,98.06
2022-08-30T10:06:10.986Z,97.49
2022-08-30T10:07:20.088Z,97.90
2022-08-30T10:08:26.031Z,97.07
2022-08-30T10:09:32.150Z,97.01
2022-08-30T10:10:45.626Z,97.24
2022-08-30T10:11:54.501Z,97.02
2022-08-30T10:12:57.346Z,97.07
2022-08-30T10:14:04.048Z,96.92
2022-08-30T10:15:16.530Z,96.33
2022-08-30T10:16:20.108Z,96.87
2022-08-30T10:17:46.015Z,96.30
2022-08-30T10:18:53.472Z,95.86
2022-08-30T10:20:07.521Z,95.72
2022-08-30T10:21:19.101Z,95.71
2022-08-30T10:22:26.449Z,95.49
2022-08-30T10:23:32.712Z,95.91
2022-08-30T10:24:43.964Z,95.52
2022-08-30T10:26:00.060Z,95.15
2022-08-30T10:27:13.848Z,94.78
2022-08-30T10:28:22.829Z,94.94
2022-08-30T10:29:31.888Z,94.79
2022-08-30T10:30:38.278Z,94.36
2022-08-30T10:31:51.854Z,94.21
2022-08-30T10:33:00.155Z,93.27
2022-08-30T10:34:06.535Z,92.67
2022-08-30T10:35:19.375Z,92.05
2022-08-30T10:36:26.234Z,91.70
2022-08-30T10:37:31.649Z,91.43
2022-08-30T10:38:37.897Z,91.93
2022-08-30T10:39:43.169Z,91.20
2022-08-30T10:41:07.501Z,91.03
2022-08-30T10:42:31.218Z,90.95
2022-08-30T10:43:39.120Z,90.66
2022-08-30T10:44:45.444Z,90.36
2022-08-30T10:45:50.453Z,90.53
2022-08-30T10:47:09.144Z,90.15
2022-08-30T10:48:24.378Z,90.18
2022-08-30T10:49:28.867Z,89.31
2022-08-30T10:50:41.412Z,89.29
2022-08-30T10:51:58.856Z,88.78
2022-08-30T10:53:08.211Z,88.96
2022-08-30T10:54:18.659Z,88.80
2022-08-30T10:55:25.913Z,88.28
2022-08-30T10:56:29.619Z,88.51
2022-08-30T10:57:32.968Z,87.69
2022-08-30T10:58:40.233Z,86.84
2022-08-30T10:59:46.010Z,86.92
2022-08-30T11:01:07.820Z,86.12
2022-08-30T11:02:36.421Z,86.49
2022-08-30T11:03:39.870Z,86.33
2022-08-30T11:04:45.738Z,86.32
2022-08-30T11:05:51.758Z,85.14
2022-08-30T11:07:12.829Z,84.65
2022-08-30T11:08:28.638Z,84.22
2022-08-30T11:09:31.451Z,84.60
2022-08-30T11:10:42.325Z,83.37
2022-08-30T11:12:00.425Z,82.98
2022-08-30T11:13:09.899Z,82.33
2022-08-30T11:14:15.451Z,80.82
2022-08-30T11:15:23.228Z,80.57
2022-08-30T11:16:37.374Z,80.42
2022-08-30T11:17:45.140Z,80.13
2022-08-30T11:18:52.068Z,79.82
2022-08-30T11:19:56.735Z,78.65
2022-08-30T11:21:18.316Z,78.84
2022-08-30T11:22:35.544Z,79.34
2022-08-30T11:23:42.080Z,79.83
2022-08-30T11:24:58.522Z,78.55
2022-08-30T11:26:06.718Z,78.61
2022-08-30T11:27:30.780Z,76.74
2022-08-30T11:28:35.455Z,77.89
2022-08-30T11:29:40.376Z,78.47
2022-08-30T11:30:44.019Z,77.75
2022-08-30T11:31:47.593Z,76.62
2022-08-30T11:33:02.344Z,77.47
2022-08-30T11:34:06.266Z,77.86
2022-08-30T11:36:37.637Z,76.43
2022-08-30T11:37:44.805Z,76.93
2022-08-30T11:38:48.857Z,77.35
2022-08-30T11:39:55.168Z,77.25
2022-08-30T11:40:59.049Z,76.25
2022-08-30T11:42:21.256Z,75.61
2022-08-30T11:43:40.271Z,76.12
2022-08-30T11:44:43.710Z,76.28
2022-08-30T11:45:48.632Z,75.65
2022-08-30T11:46:55.108Z,76.39
2022-08-30T11:48:04.308Z,75.27
2022-08-30T11:49:14.001Z,75.23
2022-08-30T11:50:25.365Z,74.32
2022-08-30T11:51:29.165Z,75.00
2022-08-30T11:52:43.666Z,74.51
2022-08-30T11:53:52.728Z,73.51
2022-08-30T11:55:01.844Z,74.03
2022-08-30T11:56:10.164Z,73.74
2022-08-30T11:57:40.843Z,73.36
2022-08-30T11:58:53.120Z,74.12
2022-08-30T11:59:59.444Z,74.14
2022-08-30T12:01:41.905Z,74.18
2022-08-30T12:02:40.236Z,73.56
2022-08-30T12:03:44.228Z,73.33
2022-08-30T12:04:47.560Z,72.90
2022-08-30T12:05:58.964Z,72.26
2022-08-30T12:07:05.614Z,72.56
2022-08-30T12:08:08.485Z,72.59
2022-08-30T12:09:20.951Z,71.78
2022-08-30T12:10:35.945Z,72.27
2022-08-30T12:11:38.840Z,72.38
2022-08-30T12:12:47.725Z,71.54
2022-08-30T12:13:52.558Z,72.11
2022-08-30T12:14:57.523Z,71.63
2022-08-30T12:16:05.629Z,71.58
2022-08-30T12:17:38.536Z,70.20
2022-08-30T12:18:48.276Z,70.35
2022-08-30T12:19:51.904Z,70.62
2022-08-30T12:20:56.597Z,71.17
2022-08-30T12:22:01.544Z,71.00
2022-08-30T12:23:17.572Z,70.73
2022-08-30T12:24:28.596Z,70.77
2022-08-30T12:25:32.946Z,69.80
2022-08-30T12:26:37.874Z,69.70
2022-08-30T12:27:41.035Z,70.31
2022-08-30T12:28:46.314Z,70.58
2022-08-30T12:29:56.946Z,70.77
2022-08-30T12:31:11.246Z,70.33
2022-08-30T12:32:22.383Z,69.62
2022-08-30T12:33:36.625Z,69.00
2022-08-30T12:34:45.055Z,69.10
2022-08-30T12:35:48.870Z,68.85
2022-08-30T12:36:54.708Z,68.31
2022-08-30T12:38:01.774Z,68.63
2022-08-30T12:39:14.265Z,67.34
2022-08-30T12:40:19.541Z,69.25
2022-08-30T12:41:23.936Z,69.73
2022-08-30T12:42:29.075Z,69.75
2022-08-30T12:43:40.530Z,69.88
2022-08-30T12:44:45.334Z,70.47
2022-08-30T12:45:50.750Z,71.17
2022-08-30T12:47:01.028Z,71.34
2022-08-30T12:48:07.830Z,70.74
2022-08-30T12:49:13.298Z,69.41
2022-08-30T12:50:18.685Z,68.54
2022-08-30T12:51:26.915Z,68.12
2022-08-30T12:52:33.828Z,68.56
2022-08-30T12:53:39.377Z,68.06
2022-08-30T12:54:42.680Z,67.81
2022-08-30T12:55:59.407Z,68.26
2022-08-30T12:57:25.517Z,67.36
2022-08-30T12:58:47.840Z,66.19
2022-08-30T13:00:01.850Z,66.11
2022-08-30T13:01:13.374Z,66.77
2022-08-30T13:02:20.152Z,66.33
2022-08-30T13:03:24.208Z,67.16
2022-08-30T13:04:28.089Z,67.45
2022-08-30T13:05:32.314Z,66.96
2022-08-30T13:06:43.846Z,67.11
2022-08-30T13:07:46.915Z,67.15
2022-08-30T13:08:51.705Z,67.39
2022-08-30T13:10:06.995Z,66.88
2022-08-30T13:11:11.482Z,67.18
2022-08-30T13:12:22.475Z,67.78
2022-08-30T13:13:45.057Z,67.72
2022-08-30T13:14:49.932Z,68.21
2022-08-30T13:15:55.374Z,68.35
2022-08-30T13:17:16.605Z,67.65
2022-08-30T13:18:26.897Z,66.94
2022-08-30T13:19:33.149Z,67.36
2022-08-30T13:20:36.002Z,67.68
2022-08-30T13:21:47.016Z,67.57
2022-08-30T13:23:05.248Z,67.04
2022-08-30T13:24:08.237Z,67.03
2022-08-30T13:25:11.678Z,67.13
2022-08-30T13:26:15.229Z,67.30
2022-08-30T13:27:27.124Z,67.35
2022-08-30T13:28:30.025Z,67.37
2022-08-30T13:29:33.236Z,67.09
2022-08-30T13:30:36.133Z,66.83
2022-08-30T13:31:39.167Z,66.72
2022-08-30T13:32:42.315Z,67.56
2022-08-30T13:33:46.157Z,67.84
2022-08-30T13:34:48.999Z,68.14
2022-08-30T13:35:53.200Z,67.95
2022-08-30T13:36:57.953Z,68.00
2022-08-30T13:38:01.807Z,68.10
2022-08-30T13:39:05.442Z,68.42
2022-08-30T13:40:12.930Z,68.11
2022-08-30T13:41:15.881Z,66.62
2022-08-30T13:42:34.657Z,66.90
2022-08-30T13:45:02.296Z,66.83
2022-08-30T13:46:06.781Z,66.74
2022-08-30T13:48:33.843Z,66.65
2022-08-30T13:49:44.936Z,66.55
2022-08-30T13:50:48.228Z,66.82
2022-08-30T13:52:19.057Z,66.92
2022-08-30T13:53:51.955Z,67.16
2022-08-30T13:54:39.775Z,67.21
2022-08-30T13:55:43.458Z,67.33
2022-08-30T13:56:46.484Z,67.70
2022-08-30T13:57:57.519Z,67.80
2022-08-30T13:59:02.776Z,67.65
2022-08-30T14:00:07.326Z,67.03
2022-08-30T14:01:15.133Z,67.40
2022-08-30T14:02:18.052Z,67.67
2022-08-30T14:03:21.267Z,67.58
2022-08-30T14:04:24.360Z,67.77
2022-08-30T14:06:21.993Z,67.87
2022-08-30T14:07:19.722Z,67.85
2022-08-30T14:08:45.183Z,67.59
2022-08-30T14:09:49.482Z,67.83
2022-08-30T14:10:52.595Z,67.76
2022-08-30T14:11:55.452Z,66.69
2022-08-30T14:13:13.970Z,66.77
2022-08-30T14:14:30.236Z,66.05
2022-08-30T14:15:41.354Z,65.86
2022-08-30T14:16:44.940Z,65.53
2022-08-30T14:17:48.222Z,65.79
2022-08-30T14:18:51.314Z,64.80